Time;durP1;ratioP1;P1;durP2;ratioP2;P2;SDS_P1;SDS_P2;PMS_P1;PMS_P2;Temp;Humidity;BMP_temperature;BMP_pressure;BME280_temperature;BME280_humidity;BME280_pressure;Samples;Min_cycle;Max_cycle;Signal;HPM_P1;HPM_P2
2021/07/01 00:01:02;;;;;;;8.37;5.67;;;15.00;99.90;;;;;;5025194;28;20205;-78
2021/07/01 00:03:27;;;;;;;6.10;4.90;;;15.00;99.90;;;;;;5021640;28;20250;-79
2021/07/01 00:05:54;;;;;;;6.90;4.60;;;15.00;99.90;;;;;;5006361;28;20596;-80
2021/07/01 00:08:20;;;;;;;6.13;4.50;;;15.10;99.90;;;;;;5023725;28;20189;-79
2021/07/01 00:10:46;;;;;;;4.93;4.20;;;15.00;99.90;;;;;;5023516;28;20457;-79
2021/07/01 00:13:12;;;;;;;6.27;4.53;;;15.00;99.90;;;;;;5022779;28;20192;-81
2021/07/01 00:15:37;;;;;;;6.90;4.00;;;15.00;99.90;;;;;;5019749;28;20211;-79
2021/07/01 00:18:04;;;;;;;4.33;3.93;;;15.00;99.90;;;;;;5025211;28;20659;-80
2021/07/01 00:20:30;;;;;;;5.10;4.30;;;15.00;99.90;;;;;;5023092;28;20207;-82
2021/07/01 00:22:56;;;;;;;5.40;4.00;;;15.00;99.90;;;;;;5023311;28;20442;-81
2021/07/01 00:25:22;;;;;;;5.77;4.00;;;15.00;99.90;;;;;;5022050;28;21091;-80
2021/07/01 00:27:48;;;;;;;5.07;3.97;;;15.10;99.90;;;;;;5025372;28;20811;-81
2021/07/01 00:30:16;;;;;;;4.83;3.50;;;15.00;99.90;;;;;;5021515;28;20509;-80
2021/07/01 00:32:42;;;;;;;7.27;4.40;;;15.00;99.90;;;;;;5027908;28;20279;-81
2021/07/01 00:35:09;;;;;;;4.60;3.97;;;15.00;99.90;;;;;;5022333;28;20534;-80
2021/07/01 00:37:34;;;;;;;6.43;4.20;;;15.10;99.90;;;;;;5025845;28;20438;-81
2021/07/01 00:40:01;;;;;;;6.43;4.80;;;15.20;99.90;;;;;;5031634;28;20435;-80
2021/07/01 00:42:27;;;;;;;4.67;3.80;;;15.20;99.90;;;;;;5024468;28;20567;-80
2021/07/01 00:44:52;;;;;;;4.97;4.30;;;15.20;99.90;;;;;;5028807;28;21063;-81
2021/07/01 00:47:19;;;;;;;4.17;3.77;;;15.20;99.90;;;;;;5028849;28;20495;-81
2021/07/01 00:49:44;;;;;;;4.70;4.20;;;15.20;99.90;;;;;;5027886;28;20275;-82
2021/07/01 00:52:11;;;;;;;5.50;4.90;;;15.30;99.90;;;;;;5026274;28;20876;-82
2021/07/01 00:54:37;;;;;;;3.73;3.20;;;15.20;99.90;;;;;;5028891;28;20192;-82
2021/07/01 00:57:04;;;;;;;4.87;4.37;;;15.30;99.90;;;;;;5029226;28;20642;-81
2021/07/01 00:59:30;;;;;;;5.03;4.20;;;15.30;99.90;;;;;;5028046;28;20570;-82
2021/07/01 01:01:58;;;;;;;5.17;4.20;;;15.20;99.90;;;;;;5027642;28;20458;-81
2021/07/01 01:04:24;;;;;;;4.43;3.93;;;15.10;99.90;;;;;;5026492;28;20192;-81
2021/07/01 01:06:50;;;;;;;5.60;5.00;;;15.20;99.90;;;;;;5026885;28;21040;-80
2021/07/01 01:09:16;;;;;;;5.60;4.20;;;15.10;99.90;;;;;;5022348;28;20181;-80
2021/07/01 01:11:41;;;;;;;5.07;4.23;;;15.10;99.90;;;;;;5023914;28;20275;-80
2021/07/01 01:14:07;;;;;;;4.57;4.17;;;15.10;99.90;;;;;;5027100;28;20181;-80
2021/07/01 01:16:33;;;;;;;7.33;4.30;;;15.10;99.90;;;;;;5029638;28;20827;-79
2021/07/01 01:18:59;;;;;;;6.07;4.90;;;15.10;99.90;;;;;;5024169;28;20669;-81
2021/07/01 01:21:27;;;;;;;7.70;3.87;;;15.10;99.90;;;;;;5024163;28;20238;-80
2021/07/01 01:23:55;;;;;;;5.20;4.67;;;15.10;99.90;;;;;;5021493;28;20474;-80
2021/07/01 01:26:21;;;;;;;5.13;3.83;;;15.10;99.90;;;;;;5021987;28;20541;-81
2021/07/01 01:28:48;;;;;;;4.57;4.10;;;15.10;99.90;;;;;;5026037;28;20471;-80
2021/07/01 01:31:14;;;;;;;5.20;4.30;;;15.10;99.90;;;;;;5025080;28;20435;-80
2021/07/01 01:33:40;;;;;;;6.40;4.53;;;15.10;99.90;;;;;;5021415;28;21380;-80
2021/07/01 01:36:06;;;;;;;7.80;4.40;;;15.00;99.90;;;;;;5023166;28;20215;-81
2021/07/01 01:38:31;;;;;;;8.93;5.10;;;15.00;99.90;;;;;;5022922;28;20211;-81
2021/07/01 01:40:57;;;;;;;4.03;3.67;;;15.10;99.90;;;;;;5027082;28;20208;-81
2021/07/01 01:43:23;;;;;;;7.43;3.97;;;15.10;99.90;;;;;;5027912;28;20213;-78
2021/07/01 01:45:50;;;;;;;5.70;4.40;;;15.10;99.90;;;;;;5023508;28;20271;-80
2021/07/01 01:48:16;;;;;;;6.13;4.10;;;15.00;99.90;;;;;;5026842;28;20197;-82
2021/07/01 01:50:42;;;;;;;5.17;4.67;;;15.00;99.90;;;;;;5026119;28;20532;-79
2021/07/01 01:53:09;;;;;;;4.83;4.43;;;15.00;99.90;;;;;;5023611;28;20256;-80
2021/07/01 01:55:36;;;;;;;5.03;3.90;;;15.00;99.90;;;;;;5025501;28;20444;-81
2021/07/01 01:58:02;;;;;;;5.17;4.30;;;15.00;99.90;;;;;;5024629;28;20440;-81
2021/07/01 02:00:29;;;;;;;5.33;4.47;;;15.00;99.90;;;;;;5024655;28;20743;-80
2021/07/01 02:02:56;;;;;;;5.33;4.70;;;14.90;99.90;;;;;;5026991;28;20432;-80
2021/07/01 02:05:22;;;;;;;6.03;4.20;;;15.00;99.90;;;;;;5020079;28;20850;-82
2021/07/01 02:07:48;;;;;;;4.70;4.20;;;14.90;99.90;;;;;;5028485;28;20496;-82
2021/07/01 02:10:24;;;;;;;5.83;4.27;;;14.90;99.90;;;;;;5025250;28;21162;-81
2021/07/01 02:12:51;;;;;;;4.40;4.00;;;15.00;99.90;;;;;;5027661;28;20431;-82
2021/07/01 02:15:23;;;;;;;7.00;5.10;;;14.90;99.90;;;;;;5025677;28;20963;-80
2021/07/01 02:17:54;;;;;;;6.30;5.37;;;15.00;99.90;;;;;;5025235;28;20427;-81
2021/07/01 02:20:24;;;;;;;5.13;4.20;;;14.90;99.90;;;;;;5025391;28;20525;-81
2021/07/01 02:22:50;;;;;;;5.97;4.50;;;15.00;99.90;;;;;;5027293;28;20431;-82
2021/07/01 02:25:16;;;;;;;6.40;4.77;;;15.00;99.90;;;;;;5024381;28;20462;-81
2021/07/01 02:27:43;;;;;;;5.30;4.23;;;15.00;99.90;;;;;;5024172;28;20489;-81
2021/07/01 02:30:12;;;;;;;5.77;5.17;;;15.00;99.90;;;;;;5023925;28;20454;-80
2021/07/01 02:32:38;;;;;;;8.10;5.47;;;15.00;99.90;;;;;;5027318;28;20449;-82
2021/07/01 02:35:06;;;;;;;4.63;4.20;;;15.00;99.90;;;;;;5025870;28;20465;-80
2021/07/01 02:37:32;;;;;;;7.00;5.20;;;15.00;99.90;;;;;;5031652;28;20455;-79
2021/07/01 02:39:58;;;;;;;5.47;4.90;;;14.90;99.90;;;;;;5034176;28;20451;-81
2021/07/01 02:42:23;;;;;;;6.77;4.93;;;15.00;99.90;;;;;;5030017;28;20208;-82
2021/07/01 02:44:49;;;;;;;4.80;4.30;;;14.90;99.90;;;;;;5030970;28;20192;-82
2021/07/01 02:47:15;;;;;;;5.73;5.07;;;15.00;99.90;;;;;;5025059;28;20255;-81
2021/07/01 02:49:40;;;;;;;7.83;5.47;;;15.00;99.90;;;;;;5028969;28;20180;-81
2021/07/01 02:52:06;;;;;;;7.30;5.63;;;14.90;99.90;;;;;;5024590;28;20545;-81
2021/07/01 02:54:32;;;;;;;4.90;4.40;;;15.00;99.90;;;;;;5026917;28;20192;-82
2021/07/01 02:57:00;;;;;;;5.83;4.97;;;14.90;99.90;;;;;;5026134;28;20469;-81
2021/07/01 02:59:26;;;;;;;5.37;4.70;;;14.90;99.90;;;;;;5025270;28;20451;-80
2021/07/01 03:01:52;;;;;;;6.80;5.30;;;14.90;99.90;;;;;;5026781;28;21038;-79
2021/07/01 03:04:17;;;;;;;8.27;5.00;;;14.90;99.90;;;;;;5024137;28;20214;-79
2021/07/01 03:06:44;;;;;;;6.73;4.73;;;14.90;99.90;;;;;;5025689;28;20716;-78
2021/07/01 03:09:10;;;;;;;4.40;4.00;;;15.10;99.90;;;;;;5025421;28;20180;-82
2021/07/01 03:11:37;;;;;;;4.93;4.53;;;15.10;99.90;;;;;;5024214;28;20433;-80
2021/07/01 03:14:04;;;;;;;5.50;3.90;;;15.10;99.90;;;;;;5024740;28;20447;-82
2021/07/01 03:16:31;;;;;;;7.00;4.17;;;15.10;99.90;;;;;;5027692;28;20454;-80
2021/07/01 03:18:57;;;;;;;5.33;4.80;;;15.10;99.90;;;;;;5023643;28;20489;-80
2021/07/01 03:21:22;;;;;;;9.10;5.90;;;15.10;99.90;;;;;;5025909;28;20507;-82
2021/07/01 03:23:48;;;;;;;7.07;5.07;;;15.10;99.90;;;;;;5025171;28;20192;-82
2021/07/01 03:26:16;;;;;;;5.77;5.17;;;15.10;99.90;;;;;;5020220;28;20201;-83
2021/07/01 03:28:42;;;;;;;6.30;4.87;;;15.10;99.90;;;;;;5021690;28;20443;-80
2021/07/01 03:31:09;;;;;;;4.80;4.10;;;15.10;99.90;;;;;;5026679;28;20431;-81
2021/07/01 03:33:35;;;;;;;7.17;4.17;;;15.20;99.90;;;;;;5027564;28;20870;-82
2021/07/01 03:36:02;;;;;;;8.90;5.27;;;15.20;99.90;;;;;;5021048;28;20488;-80
2021/07/01 03:38:28;;;;;;;5.20;4.70;;;15.30;99.90;;;;;;5024598;28;20529;-79
2021/07/01 03:40:54;;;;;;;7.57;5.00;;;15.30;99.90;;;;;;5025829;28;20594;-80
2021/07/01 03:43:21;;;;;;;5.17;4.40;;;15.30;99.90;;;;;;5025869;28;20201;-81
2021/07/01 03:45:46;;;;;;;5.60;4.33;;;15.20;99.90;;;;;;5023262;28;20549;-79
2021/07/01 03:48:12;;;;;;;5.33;4.80;;;15.20;99.90;;;;;;5016312;28;20830;-81
2021/07/01 03:50:38;;;;;;;5.43;4.63;;;15.10;99.90;;;;;;5010647;28;20184;-80
2021/07/01 03:53:04;;;;;;;6.10;4.77;;;15.10;99.90;;;;;;4995030;28;20295;-82
2021/07/01 03:55:30;;;;;;;6.00;5.17;;;15.10;99.90;;;;;;4995628;28;20874;-83
2021/07/01 03:57:56;;;;;;;8.50;5.00;;;15.10;99.90;;;;;;5004961;28;20448;-81
2021/07/01 04:00:22;;;;;;;5.93;5.23;;;15.10;99.90;;;;;;4994687;28;20436;-80
2021/07/01 04:02:48;;;;;;;8.40;4.97;;;15.10;99.90;;;;;;4997188;28;20242;-81
2021/07/01 04:05:14;;;;;;;6.70;4.80;;;15.10;99.90;;;;;;5013659;28;21041;-79
2021/07/01 04:07:40;;;;;;;10.13;6.07;;;15.10;99.90;;;;;;5012192;28;20192;-81
2021/07/01 04:10:10;;;;;;;7.07;5.43;;;15.10;99.90;;;;;;5008911;28;20428;-81
2021/07/01 04:12:35;;;;;;;7.77;4.97;;;15.10;99.90;;;;;;5019709;28;20209;-83
2021/07/01 04:15:03;;;;;;;7.13;5.20;;;15.20;99.90;;;;;;4995654;28;20559;-79
2021/07/01 04:17:29;;;;;;;5.97;5.37;;;15.10;99.90;;;;;;5006121;28;20201;-81
2021/07/01 04:19:54;;;;;;;6.73;5.90;;;15.00;99.90;;;;;;5007675;28;20834;-79
2021/07/01 04:22:20;;;;;;;7.67;5.17;;;15.10;99.90;;;;;;5004237;28;20215;-78
2021/07/01 04:24:46;;;;;;;5.87;5.27;;;15.10;99.90;;;;;;4984697;28;20310;-79
2021/07/01 04:27:12;;;;;;;7.27;5.40;;;15.10;99.90;;;;;;5008232;28;20189;-79
2021/07/01 04:29:38;;;;;;;6.80;6.10;;;15.10;99.90;;;;;;5010117;28;20574;-80
2021/07/01 04:32:05;;;;;;;6.40;5.37;;;15.10;99.90;;;;;;5006010;28;20524;-80
2021/07/01 04:34:31;;;;;;;6.53;5.50;;;15.20;99.90;;;;;;5010324;28;20440;-78
2021/07/01 04:36:57;;;;;;;8.90;6.20;;;15.20;99.90;;;;;;5009958;28;20452;-78
2021/07/01 04:39:23;;;;;;;6.20;5.40;;;15.20;99.90;;;;;;5012936;28;20506;-82
2021/07/01 04:41:49;;;;;;;6.73;5.97;;;15.20;99.90;;;;;;4994544;28;20684;-83
2021/07/01 04:44:14;;;;;;;5.60;4.67;;;15.20;99.90;;;;;;5009285;28;20428;-82
2021/07/01 04:46:40;;;;;;;5.80;5.20;;;15.20;99.90;;;;;;4998846;28;20209;-81
2021/07/01 04:49:06;;;;;;;6.87;5.33;;;15.20;99.90;;;;;;5028992;28;20370;-81
2021/07/01 04:51:32;;;;;;;5.93;4.73;;;15.20;99.90;;;;;;5027798;28;20192;-81
2021/07/01 04:53:57;;;;;;;7.00;5.73;;;15.20;99.90;;;;;;5023128;28;20439;-82
2021/07/01 04:56:23;;;;;;;5.67;5.17;;;15.20;99.90;;;;;;5029601;28;20220;-81
2021/07/01 04:58:49;;;;;;;8.37;4.53;;;15.20;99.90;;;;;;5025729;28;20212;-81
2021/07/01 05:01:14;;;;;;;5.47;4.50;;;15.20;99.90;;;;;;5031787;28;20745;-82
2021/07/01 05:03:40;;;;;;;5.50;4.30;;;15.20;99.90;;;;;;5024699;28;20183;-80
2021/07/01 05:06:06;;;;;;;6.93;4.97;;;15.30;99.90;;;;;;5021708;28;20230;-81
2021/07/01 05:08:31;;;;;;;5.07;4.40;;;15.20;99.90;;;;;;5025873;28;20216;-82
2021/07/01 05:10:57;;;;;;;6.40;4.30;;;15.20;99.90;;;;;;5029134;28;20254;-83
2021/07/01 05:13:23;;;;;;;11.67;4.27;;;15.30;99.90;;;;;;5031753;28;20192;-80
2021/07/01 05:15:49;;;;;;;8.30;4.93;;;15.20;99.90;;;;;;5031716;28;20220;-80
2021/07/01 05:18:15;;;;;;;6.07;4.33;;;15.30;99.90;;;;;;5027971;28;20427;-82
2021/07/01 05:20:43;;;;;;;10.03;4.10;;;15.40;99.90;;;;;;5024865;28;20442;-79
2021/07/01 05:23:12;;;;;;;7.23;3.70;;;15.40;99.90;;;;;;5022339;28;20196;-81
2021/07/01 05:25:37;;;;;;;8.20;4.60;;;15.40;99.90;;;;;;5031443;28;20455;-81
2021/07/01 05:28:11;;;;;;;4.80;3.67;;;15.40;99.90;;;;;;5035570;28;20694;-81
2021/07/01 05:30:37;;;;;;;4.60;4.20;;;15.50;99.90;;;;;;5028910;28;20560;-82
2021/07/01 05:33:03;;;;;;;6.83;4.00;;;15.40;99.90;;;;;;5023476;28;20435;-80
2021/07/01 05:35:29;;;;;;;6.73;4.90;;;15.50;99.90;;;;;;5023654;28;20483;-81
2021/07/01 05:37:55;;;;;;;7.47;5.13;;;15.50;99.90;;;;;;5020778;28;20521;-82
2021/07/01 05:40:22;;;;;;;5.17;4.20;;;15.60;99.90;;;;;;5022782;28;20212;-81
2021/07/01 05:42:48;;;;;;;7.33;4.40;;;15.60;99.90;;;;;;5026261;28;20603;-80
2021/07/01 05:45:15;;;;;;;5.00;4.50;;;15.70;99.90;;;;;;5019876;28;20451;-79
2021/07/01 05:47:42;;;;;;;8.77;4.70;;;15.70;99.90;;;;;;5020842;28;20521;-81
2021/07/01 05:50:09;;;;;;;5.13;4.27;;;15.80;99.90;;;;;;5026659;28;20427;-80
2021/07/01 05:52:37;;;;;;;7.43;3.87;;;15.80;99.90;;;;;;5021931;28;20457;-81
2021/07/01 05:55:04;;;;;;;6.50;4.57;;;15.80;99.90;;;;;;5015767;28;20446;-82
2021/07/01 05:57:30;;;;;;;5.73;4.50;;;15.80;99.90;;;;;;5024760;28;20471;-80
2021/07/01 05:59:56;;;;;;;5.13;3.97;;;15.80;99.90;;;;;;5022265;28;20438;-81
2021/07/01 06:02:23;;;;;;;4.90;4.43;;;15.90;99.90;;;;;;5021379;28;20474;-79
2021/07/01 06:04:49;;;;;;;4.13;3.73;;;16.00;99.90;;;;;;5017292;28;20196;-80
2021/07/01 06:07:20;;;;;;;6.30;3.60;;;16.00;99.90;;;;;;5026899;28;20454;-83
2021/07/01 06:09:48;;;;;;;10.03;5.23;;;16.00;99.90;;;;;;5023100;28;20475;-81
2021/07/01 06:12:14;;;;;;;7.93;4.30;;;15.90;99.90;;;;;;5017111;28;20439;-79
2021/07/01 06:14:41;;;;;;;5.03;4.40;;;16.00;99.90;;;;;;5022147;28;20454;-81
2021/07/01 06:17:07;;;;;;;6.90;4.33;;;15.90;99.90;;;;;;5013962;28;20793;-83
2021/07/01 06:19:34;;;;;;;4.90;4.40;;;16.00;99.90;;;;;;5022915;28;21014;-80
2021/07/01 06:22:00;;;;;;;4.73;4.23;;;16.10;99.90;;;;;;5024570;28;20459;-82
2021/07/01 06:24:26;;;;;;;9.33;5.00;;;16.20;99.90;;;;;;5018170;28;20585;-81
2021/07/01 06:26:51;;;;;;;6.23;4.40;;;16.30;99.90;;;;;;5022864;28;20211;-80
2021/07/01 06:29:18;;;;;;;4.80;4.23;;;16.40;99.90;;;;;;5023396;28;20702;-80
2021/07/01 06:31:46;;;;;;;7.33;4.37;;;16.40;99.90;;;;;;5019971;28;20189;-82
2021/07/01 06:34:16;;;;;;;11.70;4.50;;;16.30;99.90;;;;;;5019912;28;20443;-81
2021/07/01 06:36:43;;;;;;;4.73;4.10;;;16.30;99.90;;;;;;5024626;28;20447;-80
2021/07/01 06:39:10;;;;;;;4.73;3.93;;;16.30;99.90;;;;;;5022186;28;20442;-81
2021/07/01 06:41:37;;;;;;;4.80;4.30;;;16.30;99.90;;;;;;5026785;28;20564;-79
2021/07/01 06:44:06;;;;;;;5.83;4.87;;;16.40;99.90;;;;;;5025520;28;20447;-82
2021/07/01 06:46:33;;;;;;;7.70;4.40;;;16.50;99.90;;;;;;5025922;28;20451;-80
2021/07/01 06:49:00;;;;;;;5.37;4.87;;;16.50;99.90;;;;;;5027972;28;20518;-80
2021/07/01 06:51:26;;;;;;;5.30;4.53;;;16.50;99.90;;;;;;5025888;28;20440;-80
2021/07/01 06:53:54;;;;;;;10.53;4.40;;;16.50;99.90;;;;;;5030654;28;20435;-82
2021/07/01 06:56:21;;;;;;;4.80;4.30;;;16.40;99.90;;;;;;5030869;28;20443;-81
2021/07/01 06:58:47;;;;;;;7.63;5.07;;;16.50;99.90;;;;;;5023407;28;20508;-80
2021/07/01 07:01:13;;;;;;;4.90;4.40;;;16.60;99.90;;;;;;5027423;28;20459;-82
2021/07/01 07:03:39;;;;;;;6.13;4.37;;;16.60;99.90;;;;;;5025168;28;20469;-79
2021/07/01 07:06:05;;;;;;;13.73;5.03;;;16.70;99.90;;;;;;5022641;28;20212;-78
2021/07/01 07:08:31;;;;;;;8.80;5.00;;;16.70;99.90;;;;;;5021374;28;21031;-80
2021/07/01 07:10:59;;;;;;;5.47;4.27;;;16.70;99.90;;;;;;5023634;28;20533;-79
2021/07/01 07:13:25;;;;;;;6.37;4.37;;;16.80;99.90;;;;;;5025465;28;20586;-80
2021/07/01 07:15:53;;;;;;;8.23;4.70;;;16.80;99.90;;;;;;5025472;28;20455;-80
2021/07/01 07:18:23;;;;;;;7.53;4.53;;;16.80;99.90;;;;;;5019885;28;20215;-81
2021/07/01 07:21:02;;;;;;;8.13;5.03;;;16.70;99.90;;;;;;5042488;28;20817;-81
2021/07/01 07:23:33;;;;;;;5.13;3.83;;;16.70;99.90;;;;;;5023907;28;20439;-80
2021/07/01 07:26:03;;;;;;;4.40;4.00;;;16.70;99.90;;;;;;5029219;28;20465;-80
2021/07/01 07:28:31;;;;;;;5.03;4.23;;;16.60;99.90;;;;;;5026461;28;20427;-80
2021/07/01 07:30:57;;;;;;;7.70;4.53;;;16.50;99.90;;;;;;5025061;28;20466;-79
2021/07/01 07:33:26;;;;;;;5.60;4.43;;;16.30;99.90;;;;;;5025981;28;20443;-80
2021/07/01 07:35:51;;;;;;;4.60;4.13;;;16.40;99.90;;;;;;5031225;28;20516;-79
2021/07/01 07:38:18;;;;;;;3.90;3.47;;;16.40;99.90;;;;;;5028299;28;20451;-80
2021/07/01 07:40:44;;;;;;;5.03;4.53;;;16.60;99.90;;;;;;5031259;28;20220;-81
2021/07/01 07:43:13;;;;;;;9.80;5.07;;;16.70;99.90;;;;;;5028803;28;20996;-79
2021/07/01 07:45:40;;;;;;;6.10;4.40;;;16.60;99.90;;;;;;5025377;28;20452;-81
2021/07/01 07:48:06;;;;;;;6.10;3.80;;;16.60;99.90;;;;;;5025940;28;21002;-78
2021/07/01 07:50:33;;;;;;;5.60;4.10;;;16.70;99.90;;;;;;5024426;28;20447;-80
2021/07/01 07:53:00;;;;;;;6.10;5.50;;;16.70;99.90;;;;;;5020047;28;21255;-81
2021/07/01 07:55:30;;;;;;;5.43;4.23;;;16.70;99.90;;;;;;5018359;28;20461;-80
2021/07/01 07:58:00;;;;;;;9.97;4.80;;;16.70;99.90;;;;;;5023795;28;20465;-81
2021/07/01 08:00:27;;;;;;;5.37;4.07;;;16.90;99.90;;;;;;5018766;28;20422;-80
2021/07/01 08:02:54;;;;;;;5.30;4.23;;;16.90;99.90;;;;;;5021442;28;20479;-81
2021/07/01 08:05:27;;;;;;;6.33;4.70;;;17.00;99.90;;;;;;5021026;28;20463;-80
2021/07/01 08:07:55;;;;;;;7.63;4.40;;;17.10;99.90;;;;;;5023642;28;20439;-81
2021/07/01 08:10:30;;;;;;;5.07;4.07;;;17.10;99.90;;;;;;5022734;28;20431;-82
2021/07/01 08:13:02;;;;;;;5.07;4.57;;;17.10;99.90;;;;;;5007117;28;21029;-80
2021/07/01 08:15:29;;;;;;;5.50;4.17;;;17.20;99.90;;;;;;5025408;28;20512;-81
2021/07/01 08:17:55;;;;;;;5.00;4.10;;;17.10;99.90;;;;;;5020784;28;20474;-80
2021/07/01 08:20:23;;;;;;;4.80;4.00;;;17.00;99.90;;;;;;5026200;28;20514;-81
2021/07/01 08:22:51;;;;;;;5.40;4.47;;;17.20;99.90;;;;;;5024745;28;20918;-81
2021/07/01 08:25:18;;;;;;;5.80;4.20;;;17.30;99.90;;;;;;5025380;28;20491;-81
2021/07/01 08:27:46;;;;;;;5.53;4.40;;;17.30;99.90;;;;;;5026292;28;20474;-82
2021/07/01 08:30:15;;;;;;;7.77;4.10;;;17.50;99.90;;;;;;5027774;28;21181;-82
2021/07/01 08:32:41;;;;;;;4.77;4.30;;;17.40;99.90;;;;;;5029271;28;20530;-79
2021/07/01 08:35:11;;;;;;;5.73;5.23;;;17.30;99.90;;;;;;5028684;28;21045;-81
2021/07/01 08:37:37;;;;;;;5.93;4.67;;;17.30;99.90;;;;;;5027800;28;20489;-81
2021/07/01 08:40:08;;;;;;;6.50;4.60;;;17.30;99.90;;;;;;5034410;28;20424;-83
2021/07/01 08:42:37;;;;;;;4.90;3.97;;;17.60;99.90;;;;;;5040332;28;20205;-80
2021/07/01 08:45:12;;;;;;;6.10;4.30;;;17.50;99.90;;;;;;5033453;28;20835;-83
2021/07/01 08:47:42;;;;;;;4.90;4.23;;;17.50;99.90;;;;;;5028207;28;20450;-81
2021/07/01 08:50:17;;;;;;;4.30;3.90;;;17.20;99.90;;;;;;5029151;28;20421;-81
2021/07/01 08:53:04;;;;;;;4.80;3.30;;;17.30;99.90;;;;;;5022219;28;20477;-81
2021/07/01 08:55:32;;;;;;;6.50;3.83;;;17.30;99.90;;;;;;5021406;28;20450;-80
2021/07/01 08:57:59;;;;;;;4.80;4.40;;;17.20;99.90;;;;;;5026814;28;20455;-82
2021/07/01 09:00:27;;;;;;;3.93;3.63;;;17.00;99.90;;;;;;5026963;28;20507;-81
2021/07/01 09:03:10;;;;;;;5.93;4.30;;;17.00;99.90;;;;;;5023346;28;20455;-84
2021/07/01 09:05:38;;;;;;;4.80;3.53;;;17.00;99.90;;;;;;5043574;28;20450;-84
2021/07/01 09:08:12;;;;;;;4.00;3.10;;;17.00;99.90;;;;;;5040685;28;20458;-81
2021/07/01 09:10:50;;;;;;;6.30;3.20;;;17.00;99.90;;;;;;5046353;28;20845;-80
2021/07/01 09:13:21;;;;;;;3.70;3.40;;;17.20;99.90;;;;;;5037340;28;20694;-83
2021/07/01 09:15:48;;;;;;;4.10;3.70;;;17.10;99.90;;;;;;5033836;28;20655;-81
2021/07/01 09:18:14;;;;;;;5.40;4.00;;;17.10;99.90;;;;;;5027093;28;20549;-84
2021/07/01 09:20:41;;;;;;;5.40;3.90;;;17.10;99.90;;;;;;5035404;28;20473;-82
2021/07/01 09:23:09;;;;;;;4.80;3.70;;;17.10;99.90;;;;;;5037206;28;20446;-82
2021/07/01 09:25:37;;;;;;;7.00;4.70;;;17.20;99.90;;;;;;5034610;28;20463;-82
2021/07/01 09:28:04;;;;;;;5.57;4.20;;;17.00;99.90;;;;;;5026333;28;20427;-81
2021/07/01 09:30:32;;;;;;;5.13;4.70;;;16.80;99.90;;;;;;5026703;28;20438;-81
2021/07/01 09:33:04;;;;;;;4.73;4.33;;;16.70;99.90;;;;;;5030623;28;20497;-79
2021/07/01 09:35:32;;;;;;;4.70;3.93;;;16.50;99.90;;;;;;5028763;28;20466;-79
2021/07/01 09:38:04;;;;;;;5.67;4.63;;;16.60;99.90;;;;;;5029999;28;20442;-79
2021/07/01 09:40:31;;;;;;;7.13;4.37;;;16.50;99.90;;;;;;5036927;28;20426;-79
2021/07/01 09:43:02;;;;;;;5.20;4.13;;;16.60;99.90;;;;;;5034942;28;20607;-80
2021/07/01 09:45:29;;;;;;;5.10;4.50;;;16.60;99.90;;;;;;5029981;28;20459;-79
2021/07/01 09:48:18;;;;;;;4.70;3.67;;;16.70;99.90;;;;;;5030169;28;20995;-80
2021/07/01 09:50:46;;;;;;;4.57;3.63;;;16.70;99.90;;;;;;5027076;28;20779;-80
2021/07/01 09:53:36;;;;;;;7.57;4.20;;;16.70;99.90;;;;;;5029810;28;20428;-79
2021/07/01 09:56:05;;;;;;;6.17;4.00;;;16.60;99.90;;;;;;5031020;28;20796;-83
2021/07/01 09:58:32;;;;;;;5.67;4.20;;;16.70;99.90;;;;;;5030419;28;21042;-79
2021/07/01 10:00:59;;;;;;;3.60;3.20;;;16.60;99.90;;;;;;5034487;28;20445;-81
2021/07/01 10:03:25;;;;;;;5.03;3.67;;;16.60;99.90;;;;;;5026625;28;20821;-79
2021/07/01 10:05:50;;;;;;;6.67;4.03;;;16.50;99.90;;;;;;5031104;28;20455;-80
2021/07/01 10:08:16;;;;;;;4.10;3.70;;;16.70;99.90;;;;;;5025660;28;20211;-80
2021/07/01 10:10:47;;;;;;;4.80;4.30;;;16.80;99.90;;;;;;5028045;28;20223;-82
2021/07/01 10:13:14;;;;;;;5.43;4.37;;;16.90;99.90;;;;;;5029393;28;20832;-82
2021/07/01 10:15:42;;;;;;;10.13;6.07;;;16.80;99.90;;;;;;5032917;28;20449;-81
2021/07/01 10:18:22;;;;;;;5.13;4.33;;;16.60;99.90;;;;;;5028238;28;20438;-81
2021/07/01 10:20:54;;;;;;;5.17;4.67;;;16.70;99.90;;;;;;5030134;28;20415;-80
2021/07/01 10:23:20;;;;;;;4.47;4.07;;;16.90;99.90;;;;;;5028656;28;20774;-82
2021/07/01 10:25:49;;;;;;;5.20;4.70;;;17.10;99.90;;;;;;5031469;28;20467;-80
2021/07/01 10:28:17;;;;;;;5.30;4.10;;;17.20;99.90;;;;;;5033802;28;20434;-79
2021/07/01 10:30:54;;;;;;;4.80;4.40;;;17.20;99.90;;;;;;5031232;28;20427;-79
2021/07/01 10:33:25;;;;;;;5.53;4.97;;;17.20;99.90;;;;;;5035868;28;20454;-84
2021/07/01 10:35:52;;;;;;;6.27;4.90;;;17.20;99.90;;;;;;5039994;28;20466;-81
2021/07/01 10:38:19;;;;;;;6.20;5.30;;;17.30;99.90;;;;;;5039555;28;20435;-83
2021/07/01 10:40:56;;;;;;;6.23;5.03;;;17.50;99.90;;;;;;5036017;28;20431;-84
2021/07/01 10:43:43;;;;;;;7.20;4.70;;;17.70;99.90;;;;;;5037163;28;20447;-80
2021/07/01 10:46:10;;;;;;;6.43;5.67;;;17.50;99.90;;;;;;5035397;28;20435;-85
2021/07/01 10:48:36;;;;;;;5.73;4.57;;;17.30;99.90;;;;;;5033586;28;20446;-83
2021/07/01 10:51:13;;;;;;;5.10;4.60;;;17.40;99.90;;;;;;5031265;28;20930;-81
2021/07/01 10:53:41;;;;;;;9.70;4.50;;;17.30;99.90;;;;;;5031403;28;20446;-80
2021/07/01 10:56:25;;;;;;;4.30;3.90;;;17.10;99.90;;;;;;5030509;28;20474;-81
2021/07/01 10:58:55;;;;;;;6.37;4.47;;;17.00;99.90;;;;;;5034056;28;21124;-79
2021/07/01 11:01:32;;;;;;;6.10;4.10;;;16.80;99.90;;;;;;5037586;28;20525;-80
2021/07/01 11:04:04;;;;;;;10.40;4.93;;;16.90;99.90;;;;;;5031227;28;20438;-79
2021/07/01 11:06:30;;;;;;;6.17;4.97;;;17.00;99.90;;;;;;5035295;28;20442;-81
2021/07/01 11:08:56;;;;;;;5.53;5.00;;;17.10;99.90;;;;;;5031922;28;20940;-80
2021/07/01 11:11:23;;;;;;;5.60;4.23;;;17.40;99.90;;;;;;5033861;28;20455;-84
2021/07/01 11:13:54;;;;;;;5.43;3.73;;;17.70;99.90;;;;;;5038264;28;20503;-80
2021/07/01 11:16:30;;;;;;;4.93;4.03;;;18.00;99.90;;;;;;5036272;28;20998;-82
2021/07/01 11:18:56;;;;;;;5.33;4.60;;;18.10;99.90;;;;;;5032463;28;20453;-80
2021/07/01 11:21:22;;;;;;;4.27;3.73;;;18.00;99.90;;;;;;5030842;28;20831;-81
2021/07/01 11:23:51;;;;;;;4.20;3.80;;;18.00;99.90;;;;;;5033731;28;20237;-80
2021/07/01 11:26:24;;;;;;;4.07;3.67;;;18.20;99.90;;;;;;5030505;28;20235;-83
2021/07/01 11:28:50;;;;;;;4.17;3.77;;;18.20;99.90;;;;;;5031275;28;20442;-81
2021/07/01 11:31:17;;;;;;;5.90;4.07;;;18.10;99.90;;;;;;5030444;28;20427;-82
2021/07/01 11:33:50;;;;;;;4.00;3.60;;;18.30;99.90;;;;;;5027249;28;20802;-82
2021/07/01 11:36:18;;;;;;;4.10;3.37;;;18.40;99.90;;;;;;5032153;28;20463;-82
2021/07/01 11:38:45;;;;;;;10.03;3.80;;;18.50;99.90;;;;;;5028571;28;20453;-82
2021/07/01 11:41:11;;;;;;;4.73;3.50;;;19.10;99.90;;;;;;5032135;28;20546;-82
2021/07/01 11:43:40;;;;;;;4.23;3.93;;;19.50;99.90;;;;;;5033968;28;20455;-82
2021/07/01 11:46:07;;;;;;;4.13;3.43;;;19.70;99.90;;;;;;5028961;28;20538;-82
2021/07/01 11:48:34;;;;;;;4.30;3.87;;;19.80;99.90;;;;;;4989474;28;1163476;-83
2021/07/01 11:51:02;;;;;;;4.90;3.60;;;19.80;99.90;;;;;;5024899;28;20208;-80
2021/07/01 11:53:29;;;;;;;3.47;3.17;;;19.40;99.90;;;;;;5030781;28;20548;-82
2021/07/01 11:56:00;;;;;;;3.97;3.57;;;19.00;99.90;;;;;;5026326;28;20443;-82
2021/07/01 11:58:27;;;;;;;3.63;3.33;;;18.70;99.90;;;;;;5028579;28;20442;-82
2021/07/01 12:00:55;;;;;;;6.03;4.03;;;18.40;99.90;;;;;;5029132;28;20446;-82
2021/07/01 12:03:21;;;;;;;5.23;3.50;;;18.30;99.90;;;;;;5030166;28;20473;-81
2021/07/01 12:05:49;;;;;;;3.97;3.57;;;18.30;99.90;;;;;;5033192;28;20451;-82
2021/07/01 12:08:15;;;;;;;6.53;3.73;;;18.20;99.90;;;;;;5034226;28;20487;-81
2021/07/01 12:10:44;;;;;;;4.03;3.50;;;18.10;99.90;;;;;;5032132;28;20937;-81
2021/07/01 12:13:31;;;;;;;4.23;3.60;;;18.10;99.90;;;;;;5029995;28;21096;-79
2021/07/01 12:16:04;;;;;;;3.50;3.20;;;18.00;99.90;;;;;;5034313;28;20443;-81
2021/07/01 12:18:50;;;;;;;3.40;3.10;;;17.90;99.90;;;;;;5034635;28;20465;-83
2021/07/01 12:21:23;;;;;;;4.23;3.50;;;18.00;99.90;;;;;;5034288;28;20486;-82
2021/07/01 12:23:50;;;;;;;3.57;3.07;;;17.90;99.90;;;;;;5032215;28;20440;-84
2021/07/01 12:26:42;;;;;;;4.87;3.70;;;17.90;99.90;;;;;;5035545;28;20470;-82
2021/07/01 12:29:13;;;;;;;4.50;3.47;;;17.80;99.90;;;;;;5035199;28;20892;-83
2021/07/01 12:31:41;;;;;;;5.77;3.43;;;17.80;99.90;;;;;;5039465;28;20427;-83
2021/07/01 12:34:11;;;;;;;6.43;5.10;;;18.10;99.90;;;;;;5038716;28;20423;-82
2021/07/01 12:36:42;;;;;;;4.80;3.13;;;18.00;99.90;;;;;;5037924;28;20447;-84
2021/07/01 12:39:12;;;;;;;5.30;3.53;;;18.00;99.90;;;;;;5035812;28;20435;-83
2021/07/01 12:41:37;;;;;;;4.30;3.33;;;17.80;99.90;;;;;;5041412;28;20479;-82
2021/07/01 12:44:04;;;;;;;5.67;3.20;;;17.80;99.90;;;;;;5036274;28;20852;-82
2021/07/01 12:51:48;;;;;;;5.00;4.20;;;18.40;99.90;;;;;;5018583;28;20941;-87
2021/07/01 12:54:25;;;;;;;3.40;2.87;;;18.50;99.90;;;;;;5001506;28;20447;-83